Wall, SD (57790)

2:05 PM MDT on August 21, 2014 (GMT -0600)
RAWS PINNACLES SD US | Change Station
CLOSE
Current Station
Personal Weather Station
Location: Wall, SD
Elevation: 3080 ft
Nearby Weather Stations

Elev 3080 ft 43.88 °N, 102.24 °W | Updated 45 minutes ago

Clear
Clear
83 °F
Feels Like 81 °F
N
8
Wind Variable Wind from NW
Gusts 14.0 mph

Today
High -- | Low -- °F
--% Chance of Precip.
Yesterday
High -- | Low -- °F
Precip. -- in
5:59 AM 7:43 PM
Waning Crescent, 12% visible
Pressure 29.83 in
Visibility 10.0 miles
Clouds Clear
Heat Index 81 °F
Dew Point 49 °F
Humidity 31%
Rainfall 0.00 in
Snow Depth Not available.
UV 9 out of 12
Pollen 9.70 out of 12
Air Quality Not available.
Flu Activity Not available.
METAR KPHP 211955Z AUTO 03005KT 10SM CLR 31/12 A2989 RMK AO2 SLP101 T03110117

More Conditions Fewer Conditions

Pressure 29.83 in
Visibility 10.0 miles
Clouds Clear
Heat Index 81 °F
Dew Point 49 °F
Humidity 31%
Rainfall 0.00 in
Snow Depth Not available.
UV 9 out of 12
Pollen 9.70 out of 12
Air Quality Not available.
Flu Activity Not available.
METAR KPHP 211955Z AUTO 03005KT 10SM CLR 31/12 A2989 RMK AO2 SLP101 T03110117

More Conditions Fewer Conditions

10-Day Weather Forecast

Almanac

Astronomy

Aug. 21, 2014 Rise Set
Actual Time 5:59 AM MDT 7:43 PM MDT
Civil Twilight 5:29 AM MDT 8:14 PM MDT
Nautical Twilight 4:51 AM MDT 8:51 PM MDT
Astronomical Twilight 4:11 AM MDT 9:31 PM MDT
Moon 2:28 AM MDT 5:16 PM MDT
Length of Visible Light 14h 45m
Length of Day
13h 43m
Tomorrow will be 2m 47s shorter.
Waning Crescent, 12% of the Moon is Illuminated
Today
Waning Crescent
Aug 25
New
Sep 2
First Quarter
Sep 8
Full
Sep 15
Last Quarter

Today's Extremes

State Highs State Lows

Community

WunderPhotos

Upload Photos

1,746,011 photos uploaded!

WunderBlogs® & News

Nearby

Snow Depth

Station Depth Elevation
Blind Park 0 in 6890 ft

Earthquake Activity

City Distance Mag. Time & Date
No recent earthquake activity has been reported nearby.
Minimum magnitude displayed is 2.5.

Coastal Water Temperatures

Place Temperature
No Stations Reporting

Nearby Weather Stations